Time;durP1;ratioP1;P1;durP2;ratioP2;P2;SDS_P1;SDS_P2;PMS_P1;PMS_P2;Temp;Humidity;BMP_temperature;BMP_pressure;BME280_temperature;BME280_humidity;BME280_pressure;Samples;Min_cycle;Max_cycle;Signal;HPM_P1;HPM_P2
2022/04/14 00:01:51;;;;;;;33.08;30.65;;;;;;;1.90;100.00;101643.50;4974755;28;20071;-90
2022/04/14 00:04:18;;;;;;;39.33;36.25;;;;;;;1.95;100.00;101650.03;4969002;28;20042;-90
2022/04/14 00:06:46;;;;;;;37.53;34.60;;;;;;;2.09;100.00;101648.03;4975280;28;20053;-91
2022/04/14 00:09:13;;;;;;;42.05;38.35;;;;;;;2.21;100.00;101653.09;4975670;28;20043;-91
2022/04/14 00:11:40;;;;;;;41.35;38.03;;;;;;;1.72;100.00;101646.66;4976175;28;20062;-91
2022/04/14 00:14:07;;;;;;;48.30;44.47;;;;;;;1.83;100.00;101651.03;4974418;28;20497;-90
2022/04/14 00:16:38;;;;;;;38.22;35.15;;;;;;;1.74;100.00;101649.16;4964533;28;20432;-91
2022/04/14 00:19:10;;;;;;;43.08;39.33;;;;;;;1.53;100.00;101643.88;4964495;28;20081;-91
2022/04/14 00:21:37;;;;;;;42.70;39.23;;;;;;;1.67;100.00;101654.09;4972960;28;20058;-91
2022/04/14 00:24:06;;;;;;;38.75;35.50;;;;;;;1.64;100.00;101646.47;4975956;28;20306;-91
2022/04/14 00:26:33;;;;;;;38.25;35.15;;;;;;;1.60;100.00;101639.81;4975601;28;20058;-90
2022/04/14 00:29:00;;;;;;;42.15;39.17;;;;;;;1.91;100.00;101643.38;4976357;28;20049;-91
2022/04/14 00:31:27;;;;;;;42.10;38.80;;;;;;;1.50;100.00;101642.34;4975264;28;20046;-91
2022/04/14 00:33:53;;;;;;;37.42;34.67;;;;;;;1.83;100.00;101646.63;4966559;28;20042;-91
2022/04/14 00:36:20;;;;;;;39.55;36.65;;;;;;;1.91;100.00;101647.78;4975294;28;20050;-91
2022/04/14 00:38:47;;;;;;;38.92;35.97;;;;;;;1.32;100.00;101647.28;4976040;28;20047;-91
2022/04/14 00:41:15;;;;;;;35.25;32.58;;;;;;;1.31;100.00;101644.78;4970977;28;20515;-91
2022/04/14 00:43:43;;;;;;;43.63;40.22;;;;;;;1.38;100.00;101643.34;4974945;28;20428;-91
2022/04/14 00:46:10;;;;;;;43.28;40.15;;;;;;;1.77;100.00;101643.69;4974969;28;20090;-90
2022/04/14 00:48:39;;;;;;;37.55;34.75;;;;;;;2.01;100.00;101646.06;4973958;28;20074;-91
2022/04/14 00:51:07;;;;;;;42.22;39.00;;;;;;;1.83;100.00;101640.56;4970905;28;20051;-90
2022/04/14 00:53:33;;;;;;;43.33;40.03;;;;;;;1.64;100.00;101648.28;4966331;28;20055;-91
2022/04/14 00:56:00;;;;;;;35.95;33.17;;;;;;;1.89;100.00;101641.84;4975246;28;20055;-91
2022/04/14 00:58:29;;;;;;;33.92;31.13;;;;;;;1.82;100.00;101638.91;4972302;28;20049;-90
2022/04/14 01:00:56;;;;;;;33.70;31.13;;;;;;;1.56;100.00;101641.03;4974750;28;20046;-91
2022/04/14 01:03:23;;;;;;;35.75;32.95;;;;;;;1.89;100.00;101641.84;4970539;28;20054;-90
2022/04/14 01:05:50;;;;;;;35.22;32.60;;;;;;;1.67;100.00;101637.53;4975932;28;20050;-91
2022/04/14 01:08:19;;;;;;;37.65;34.53;;;;;;;1.46;100.00;101642.72;4975107;28;20043;-91
2022/04/14 01:10:48;;;;;;;34.15;31.25;;;;;;;1.65;100.00;101650.75;4974246;28;20055;-91
2022/04/14 01:13:17;;;;;;;37.78;34.90;;;;;;;1.47;100.00;101647.00;4974812;28;20066;-90
2022/04/14 01:15:46;;;;;;;39.33;36.38;;;;;;;1.87;100.00;101655.06;4973418;28;20047;-91
2022/04/14 01:18:14;;;;;;;38.88;36.22;;;;;;;1.31;100.00;101650.84;4959776;28;20050;-91
2022/04/14 01:20:42;;;;;;;40.65;37.55;;;;;;;1.49;100.00;101651.16;4973618;28;20130;-91
2022/04/14 01:23:13;;;;;;;37.88;34.67;;;;;;;1.55;100.00;101655.09;4974831;28;20151;-91
2022/04/14 01:25:41;;;;;;;41.78;38.78;;;;;;;1.23;100.00;101660.28;4969988;28;20082;-90
2022/04/14 01:28:08;;;;;;;40.63;37.45;;;;;;;1.12;100.00;101661.97;4970403;28;20054;-90
2022/04/14 01:30:36;;;;;;;42.13;38.85;;;;;;;1.30;100.00;101662.28;4971943;28;20053;-91
2022/04/14 01:33:04;;;;;;;42.03;38.75;;;;;;;1.53;100.00;101667.44;4973549;28;20042;-91
2022/04/14 01:35:33;;;;;;;42.80;39.20;;;;;;;1.49;100.00;101655.56;4974000;28;20061;-91
2022/04/14 01:38:00;;;;;;;44.97;41.58;;;;;;;1.76;100.00;101655.13;4970086;28;20061;-91
2022/04/14 01:40:28;;;;;;;49.42;45.63;;;;;;;1.93;100.00;101651.94;4971866;28;20058;-90
2022/04/14 01:42:57;;;;;;;45.85;42.20;;;;;;;1.55;100.00;101650.66;4971138;28;20050;-90
2022/04/14 01:45:24;;;;;;;41.88;38.78;;;;;;;1.58;100.00;101649.59;4973663;28;20126;-91
2022/04/14 01:47:53;;;;;;;40.65;37.65;;;;;;;1.18;100.00;101649.31;4974317;28;20047;-91
2022/04/14 01:50:22;;;;;;;49.22;45.58;;;;;;;1.10;100.00;101647.34;4974289;28;20077;-91
2022/04/14 01:52:49;;;;;;;42.30;38.97;;;;;;;0.95;100.00;101656.38;4974086;28;20492;-91
2022/04/14 01:55:17;;;;;;;40.28;36.38;;;;;;;1.26;100.00;101657.41;4970804;28;20043;-91
2022/04/14 01:57:45;;;;;;;41.67;38.63;;;;;;;1.40;100.00;101654.53;4969748;28;20501;-90
2022/04/14 02:02:48;;;;;;;46.42;43.10;;;;;;;1.42;100.00;101652.59;5002897;23;20059;-89
2022/04/14 02:05:15;;;;;;;42.20;38.90;;;;;;;1.36;100.00;101653.94;4968876;28;20047;-90
2022/04/14 02:07:42;;;;;;;44.15;40.97;;;;;;;1.71;100.00;101652.03;4973325;28;20057;-90
2022/04/14 02:10:09;;;;;;;42.90;39.90;;;;;;;1.87;100.00;101655.06;4973027;28;20051;-90
2022/04/14 02:12:36;;;;;;;46.40;43.33;;;;;;;1.69;100.00;101661.81;4973748;28;20412;-90
2022/04/14 02:15:03;;;;;;;45.47;42.05;;;;;;;1.82;100.00;101665.94;4973453;28;20455;-89
2022/04/14 02:17:30;;;;;;;44.53;41.63;;;;;;;1.20;100.00;101663.97;4974110;28;20062;-90
2022/04/14 02:19:58;;;;;;;44.92;41.42;;;;;;;1.56;100.00;101660.19;4973597;28;20055;-90
2022/04/14 02:22:25;;;;;;;42.00;38.78;;;;;;;1.71;100.00;101657.28;4973347;28;20142;-90
2022/04/14 02:24:52;;;;;;;46.20;42.95;;;;;;;1.76;100.00;101658.56;4972785;28;20500;-90
2022/04/14 02:27:21;;;;;;;41.92;39.13;;;;;;;1.57;100.00;101661.00;4973234;28;20125;-89
2022/04/14 02:29:47;;;;;;;41.70;38.80;;;;;;;1.52;100.00;101658.78;4973457;28;20413;-90
2022/04/14 02:32:14;;;;;;;39.30;36.72;;;;;;;1.40;100.00;101656.31;4973348;28;20053;-89
2022/04/14 02:34:41;;;;;;;42.97;39.53;;;;;;;1.58;100.00;101662.69;4972985;28;20050;-90
2022/04/14 02:37:09;;;;;;;43.20;40.15;;;;;;;1.60;100.00;101661.63;4972672;28;20057;-90
2022/04/14 02:39:36;;;;;;;45.75;42.33;;;;;;;1.66;100.00;101667.28;4965027;28;20046;-90
2022/04/14 02:42:03;;;;;;;45.55;42.13;;;;;;;1.75;100.00;101663.91;4973460;28;20051;-90
2022/04/14 02:44:30;;;;;;;42.40;39.40;;;;;;;1.16;100.00;101669.56;4973401;28;20051;-90
2022/04/14 02:46:57;;;;;;;49.00;45.42;;;;;;;1.34;100.00;101662.88;4973431;28;20070;-90
2022/04/14 02:49:24;;;;;;;44.60;40.95;;;;;;;0.99;100.00;101663.88;4973002;28;20105;-90
2022/04/14 02:51:50;;;;;;;41.30;37.80;;;;;;;0.93;100.00;101666.13;4972728;28;20042;-90
2022/04/14 02:54:19;;;;;;;36.85;33.83;;;;;;;1.21;100.00;101670.88;4973007;28;20047;-91
2022/04/14 02:56:46;;;;;;;38.50;35.20;;;;;;;1.28;100.00;101672.03;4972737;28;20121;-90
2022/04/14 02:59:15;;;;;;;38.00;34.75;;;;;;;1.11;100.00;101669.91;4972532;28;20042;-90
2022/04/14 03:01:41;;;;;;;40.75;37.55;;;;;;;1.30;100.00;101666.66;4973281;28;20054;-90
2022/04/14 03:04:08;;;;;;;41.42;38.05;;;;;;;1.34;100.00;101661.09;4972270;28;20098;-90
2022/04/14 03:06:35;;;;;;;38.15;35.20;;;;;;;1.45;100.00;101669.84;4966852;28;20042;-90
2022/04/14 03:09:02;;;;;;;39.17;36.47;;;;;;;1.38;100.00;101669.50;4972975;28;20057;-90
2022/04/14 03:11:33;;;;;;;36.17;33.47;;;;;;;1.32;100.00;101672.63;4973010;28;20054;-90
2022/04/14 03:13:59;;;;;;;39.15;36.20;;;;;;;1.30;100.00;101674.53;4972350;28;20500;-90
2022/04/14 03:16:26;;;;;;;39.38;36.08;;;;;;;1.45;100.00;101667.22;4972689;28;20050;-90
2022/04/14 03:18:53;;;;;;;48.03;44.33;;;;;;;1.55;100.00;101679.47;4971209;28;20050;-90
2022/04/14 03:21:20;;;;;;;55.00;50.72;;;;;;;1.43;100.00;101683.09;4969715;28;20055;-90
2022/04/14 03:23:47;;;;;;;56.90;51.58;;;;;;;1.47;100.00;101683.66;4969002;28;20054;-90
2022/04/14 03:26:13;;;;;;;73.38;67.90;;;;;;;1.49;100.00;101690.44;4976310;28;20054;-89
2022/04/14 03:28:43;;;;;;;72.85;67.28;;;;;;;1.49;100.00;101685.22;4975953;28;20062;-90
2022/04/14 03:31:10;;;;;;;64.32;58.92;;;;;;;1.50;100.00;101689.47;4976378;28;20070;-90
2022/04/14 03:33:37;;;;;;;60.50;55.63;;;;;;;1.37;100.00;101694.03;4968157;28;20042;-90
2022/04/14 03:36:04;;;;;;;67.50;61.10;;;;;;;1.46;100.00;101695.09;4974819;28;20047;-91
2022/04/14 03:38:33;;;;;;;70.45;64.72;;;;;;;1.64;100.00;101688.38;4970276;28;20047;-90
2022/04/14 03:41:02;;;;;;;61.53;56.28;;;;;;;1.51;100.00;101696.41;4974674;28;20076;-90
2022/04/14 03:43:29;;;;;;;66.57;60.80;;;;;;;1.53;100.00;101702.31;4976198;28;20046;-90
2022/04/14 03:46:00;;;;;;;61.20;56.22;;;;;;;1.41;100.00;101700.69;4976256;28;20057;-90
2022/04/14 03:48:27;;;;;;;64.43;58.53;;;;;;;1.07;100.00;101711.19;4966377;28;20504;-90
2022/04/14 03:50:55;;;;;;;69.50;63.05;;;;;;;1.06;100.00;101712.16;4976076;28;20043;-90
2022/04/14 03:53:22;;;;;;;69.18;62.85;;;;;;;1.19;100.00;101712.03;4970283;28;20056;-90
2022/04/14 03:55:49;;;;;;;68.00;61.90;;;;;;;1.10;100.00;101710.97;4975173;28;20498;-90
2022/04/14 03:58:16;;;;;;;62.55;57.53;;;;;;;1.10;100.00;101713.56;4975382;28;20526;-90
2022/04/14 04:00:43;;;;;;;63.85;58.65;;;;;;;1.13;100.00;101721.19;4974715;28;20050;-90
2022/04/14 04:03:11;;;;;;;64.10;58.95;;;;;;;1.27;100.00;101724.50;4976226;28;20058;-90
2022/04/14 04:05:38;;;;;;;57.05;51.40;;;;;;;1.08;100.00;101727.72;4975054;28;20050;-90
2022/04/14 04:08:06;;;;;;;57.10;51.30;;;;;;;1.14;100.00;101725.47;4975926;28;20070;-90
2022/04/14 04:10:33;;;;;;;60.92;54.63;;;;;;;1.21;100.00;101727.59;4970160;28;20047;-90
2022/04/14 04:13:02;;;;;;;60.50;54.38;;;;;;;1.49;100.00;101734.94;4972650;28;20105;-90
2022/04/14 04:15:29;;;;;;;57.28;51.47;;;;;;;1.63;100.00;101738.25;4973911;28;20105;-90
2022/04/14 04:17:56;;;;;;;37.95;34.45;;;;;;;1.56;100.00;101732.66;4970852;28;20051;-90
2022/04/14 04:20:24;;;;;;;38.65;35.45;;;;;;;1.68;100.00;101743.97;4975621;28;20057;-90
2022/04/14 04:22:51;;;;;;;38.58;35.25;;;;;;;1.74;100.00;101733.00;4975611;28;20105;-90
2022/04/14 04:25:17;;;;;;;36.95;33.55;;;;;;;1.83;100.00;101738.31;4974765;28;20106;-90
2022/04/14 04:27:44;;;;;;;35.22;32.35;;;;;;;1.84;100.00;101731.28;4975347;28;20050;-90
2022/04/14 04:30:11;;;;;;;39.00;35.90;;;;;;;2.08;100.00;101744.19;4972069;28;20053;-90
2022/04/14 04:32:39;;;;;;;40.05;36.95;;;;;;;2.08;100.00;101738.09;4962786;28;20046;-90
2022/04/14 04:35:09;;;;;;;36.75;33.55;;;;;;;2.02;100.00;101745.50;4963576;28;20485;-90
2022/04/14 04:37:39;;;;;;;35.80;33.22;;;;;;;2.27;100.00;101738.28;4964497;28;20132;-90
2022/04/14 04:40:07;;;;;;;33.63;30.83;;;;;;;2.26;100.00;101736.59;4968364;28;20039;-90
2022/04/14 04:42:34;;;;;;;35.50;32.58;;;;;;;2.27;100.00;101740.91;4975161;28;20050;-90
2022/04/14 04:45:01;;;;;;;33.92;31.42;;;;;;;2.33;100.00;101737.78;4974060;28;20050;-90
2022/04/14 04:47:28;;;;;;;34.83;31.92;;;;;;;2.61;100.00;101743.34;4977374;28;20054;-90
2022/04/14 04:49:54;;;;;;;33.90;31.35;;;;;;;2.62;100.00;101748.44;4970232;28;20042;-90
2022/04/14 04:52:21;;;;;;;34.10;31.40;;;;;;;2.70;100.00;101743.38;4974263;28;20058;-90
2022/04/14 04:54:50;;;;;;;33.05;30.67;;;;;;;2.73;100.00;101745.75;4968856;28;20109;-90
2022/04/14 04:57:17;;;;;;;33.83;31.23;;;;;;;2.72;100.00;101741.47;4966861;28;20056;-91
2022/04/14 04:59:44;;;;;;;34.05;31.55;;;;;;;2.98;100.00;101754.16;4975253;28;20059;-92
2022/04/14 05:02:10;;;;;;;46.15;40.83;;;;;;;2.96;100.00;101748.19;4970841;28;20142;-91
2022/04/14 05:04:37;;;;;;;33.60;31.00;;;;;;;3.08;100.00;101754.19;4963918;28;20047;-90
2022/04/14 05:07:06;;;;;;;35.38;32.78;;;;;;;3.39;100.00;101747.16;4966113;28;20051;-90
2022/04/14 05:09:34;;;;;;;37.35;34.55;;;;;;;3.54;100.00;101752.81;4966318;28;20133;-91
2022/04/14 05:12:03;;;;;;;33.22;30.85;;;;;;;3.98;100.00;101751.53;4972209;28;20054;-90
2022/04/14 05:14:30;;;;;;;36.03;33.13;;;;;;;3.65;100.00;101753.56;4968175;28;20640;-89
2022/04/14 05:16:57;;;;;;;33.38;31.23;;;;;;;3.82;100.00;101749.44;4964260;28;20109;-89
2022/04/14 05:19:25;;;;;;;35.92;33.05;;;;;;;3.98;100.00;101758.59;4971595;28;20039;-89
2022/04/14 05:21:51;;;;;;;35.72;32.92;;;;;;;3.91;100.00;101755.69;4966537;28;20109;-89
2022/04/14 05:24:24;;;;;;;34.15;31.83;;;;;;;4.23;100.00;101755.41;4968252;28;20124;-89
2022/04/14 05:26:50;;;;;;;;;;;;;;;4.54;100.00;101757.88;4975982;28;20046;-90
2022/04/14 05:29:20;;;;;;;34.83;32.13;;;;;;;4.47;100.00;101762.84;4973522;28;19922;-89
2022/04/14 05:31:47;;;;;;;35.33;32.33;;;;;;;4.55;100.00;101763.00;4973180;28;20055;-89
2022/04/14 05:34:13;;;;;;;36.17;33.00;;;;;;;4.80;100.00;101758.91;4973257;28;20042;-89
2022/04/14 05:36:40;;;;;;;34.67;31.80;;;;;;;4.52;100.00;101763.28;4972146;28;20066;-89
2022/04/14 05:39:07;;;;;;;42.08;39.13;;;;;;;5.12;100.00;101757.72;4968921;28;20055;-89
2022/04/14 05:41:34;;;;;;;41.85;38.97;;;;;;;5.31;100.00;101756.81;4974070;28;20046;-89
2022/04/14 05:44:01;;;;;;;44.55;41.22;;;;;;;5.46;100.00;101759.78;4974128;28;20051;-89
2022/04/14 05:46:31;;;;;;;42.13;38.90;;;;;;;6.01;100.00;101762.38;4973348;28;20567;-89
2022/04/14 05:48:58;;;;;;;45.63;42.72;;;;;;;6.07;100.00;101760.94;4964975;28;20043;-89
2022/04/14 05:51:25;;;;;;;35.60;33.17;;;;;;;6.01;100.00;101756.28;4968335;28;20800;-89
2022/04/14 05:53:53;;;;;;;36.50;33.95;;;;;;;6.12;100.00;101753.41;4967345;28;20051;-89
2022/04/14 05:56:20;;;;;;;39.38;36.67;;;;;;;6.48;100.00;101751.56;4977112;28;20054;-89
2022/04/14 05:58:47;;;;;;;40.30;37.53;;;;;;;6.67;100.00;101763.75;4971975;28;20116;-90
2022/04/14 06:01:14;;;;;;;36.85;34.25;;;;;;;6.54;100.00;101750.94;4967931;28;20051;-89
2022/04/14 06:03:42;;;;;;;36.80;34.20;;;;;;;6.53;100.00;101751.91;4973545;28;20492;-90
2022/04/14 06:06:12;;;;;;;37.47;35.08;;;;;;;6.76;100.00;101752.25;4970414;28;20043;-90
2022/04/14 06:08:40;;;;;;;38.42;35.97;;;;;;;6.54;100.00;101753.59;4965366;28;20059;-90
2022/04/14 06:11:07;;;;;;;36.70;34.10;;;;;;;6.77;100.00;101753.06;4968568;28;20043;-90
2022/04/14 06:13:34;;;;;;;36.78;34.38;;;;;;;6.92;100.00;101751.50;4973072;28;20113;-90
2022/04/14 06:16:02;;;;;;;39.20;35.67;;;;;;;7.12;100.00;101752.13;4973695;28;20054;-90
2022/04/14 06:18:33;;;;;;;36.38;33.95;;;;;;;7.26;100.00;101748.03;4973823;28;20054;-90
2022/04/14 06:21:01;;;;;;;37.70;35.20;;;;;;;7.48;100.00;101744.84;4977640;28;20047;-90
2022/04/14 06:23:31;;;;;;;38.00;35.47;;;;;;;7.63;100.00;101755.63;4970240;28;20150;-90
2022/04/14 06:26:00;;;;;;;41.00;38.05;;;;;;;7.84;100.00;101749.03;4971997;28;20074;-89
2022/04/14 06:28:31;;;;;;;53.97;49.80;;;;;;;7.91;100.00;101753.53;4973341;28;20057;-90
2022/04/14 06:30:59;;;;;;;39.28;36.58;;;;;;;8.18;100.00;101746.28;4970053;28;20502;-89
2022/04/14 06:33:30;;;;;;;38.13;35.65;;;;;;;8.66;100.00;101741.97;4973272;28;20556;-90
2022/04/14 06:35:59;;;;;;;38.53;36.03;;;;;;;8.41;100.00;101742.00;4973349;28;20042;-90
2022/04/14 06:38:28;;;;;;;50.60;47.13;;;;;;;8.93;100.00;101743.41;4976790;28;20047;-89
2022/04/14 06:40:55;;;;;;;47.58;44.78;;;;;;;9.08;100.00;101747.00;4963454;28;20051;-90
2022/04/14 06:43:25;;;;;;;45.67;42.58;;;;;;;9.08;100.00;101762.91;4970834;28;20051;-90
2022/04/14 06:45:53;;;;;;;41.80;39.40;;;;;;;9.32;100.00;101755.84;4973489;28;20058;-90
2022/04/14 06:48:20;;;;;;;42.33;39.60;;;;;;;9.46;100.00;101756.94;4973869;28;20496;-90
2022/04/14 06:50:47;;;;;;;47.05;43.72;;;;;;;10.00;100.00;101749.00;4973186;28;20058;-89
2022/04/14 06:53:14;;;;;;;47.65;44.05;;;;;;;10.42;100.00;101748.53;4973555;28;20039;-89
2022/04/14 06:55:45;;;;;;;43.92;41.13;;;;;;;10.48;100.00;101753.13;4975430;28;20051;-90
2022/04/14 06:58:17;;;;;;;43.13;40.03;;;;;;;10.59;100.00;101761.66;4979218;28;20149;-89
2022/04/14 07:00:44;;;;;;;39.22;36.72;;;;;;;10.88;100.00;101755.56;4979095;28;20054;-90
2022/04/14 07:03:12;;;;;;;41.15;38.70;;;;;;;10.84;100.00;101751.63;4978428;28;20110;-89
2022/04/14 07:05:39;;;;;;;43.47;40.65;;;;;;;11.09;100.00;101752.19;4979413;28;20062;-90
2022/04/14 07:08:06;;;;;;;41.65;39.08;;;;;;;11.45;100.00;101760.22;4979342;28;20133;-89
2022/04/14 07:10:33;;;;;;;40.58;38.08;;;;;;;11.31;100.00;101753.06;4979171;28;20078;-90
2022/04/14 07:13:07;;;;;;;41.63;39.22;;;;;;;12.09;100.00;101760.31;4979084;28;20129;-90
2022/04/14 07:15:34;;;;;;;44.20;41.50;;;;;;;12.02;100.00;101762.09;4979142;28;20062;-89
2022/04/14 07:18:01;;;;;;;40.83;38.28;;;;;;;12.23;100.00;101758.63;4979614;28;20054;-90
2022/04/14 07:20:31;;;;;;;38.78;36.25;;;;;;;12.32;100.00;101757.47;4979445;28;20043;-90
2022/04/14 07:23:02;;;;;;;40.63;38.22;;;;;;;12.60;100.00;101751.31;4977036;28;20050;-90
2022/04/14 07:25:31;;;;;;;38.47;36.08;;;;;;;12.61;100.00;101755.63;4974346;28;20043;-90
2022/04/14 07:27:59;;;;;;;37.17;34.83;;;;;;;13.05;100.00;101757.16;4976449;28;20057;-90
2022/04/14 07:30:31;;;;;;;44.70;41.90;;;;;;;13.43;100.00;101757.53;4973410;28;20058;-90
2022/04/14 07:33:00;;;;;;;41.28;38.78;;;;;;;13.47;100.00;101758.00;4977255;28;20076;-90
2022/04/14 07:35:32;;;;;;;40.22;37.75;;;;;;;13.62;100.00;101761.34;4973340;28;20043;-90
2022/04/14 07:38:03;;;;;;;43.73;41.17;;;;;;;13.91;100.00;101759.34;4967262;28;20418;-90
2022/04/14 07:40:32;;;;;;;42.10;39.13;;;;;;;14.30;100.00;101755.88;4978968;28;20047;-90
2022/04/14 07:42:59;;;;;;;40.55;38.05;;;;;;;14.57;100.00;101756.75;4973258;28;20049;-90
2022/04/14 07:45:30;;;;;;;40.50;38.20;;;;;;;14.53;100.00;101754.69;4979069;28;20051;-90
2022/04/14 07:47:57;;;;;;;46.00;43.40;;;;;;;14.72;90.76;101761.88;4979459;28;20061;-90
2022/04/14 07:50:24;;;;;;;42.60;39.95;;;;;;;15.03;89.50;101760.34;4978933;28;20512;-90
2022/04/14 07:52:52;;;;;;;42.05;39.05;;;;;;;15.11;91.99;101760.13;4979173;28;20093;-90
2022/04/14 07:55:21;;;;;;;44.03;41.53;;;;;;;15.27;93.85;101761.53;4978814;28;20486;-91
2022/04/14 07:57:49;;;;;;;44.22;41.75;;;;;;;15.54;93.83;101762.22;4977230;28;20500;-90
2022/04/14 08:00:20;;;;;;;42.28;39.83;;;;;;;15.58;99.08;101763.44;4978401;28;20047;-91
2022/04/14 08:02:50;;;;;;;42.90;40.28;;;;;;;15.60;93.06;101755.19;4978979;28;20117;-90
2022/04/14 08:05:17;;;;;;;44.03;41.63;;;;;;;15.74;98.78;101756.81;4978656;28;20085;-90
2022/04/14 08:07:46;;;;;;;38.88;36.38;;;;;;;15.95;92.15;101753.78;4978196;28;20138;-91
2022/04/14 08:10:16;;;;;;;42.75;40.28;;;;;;;16.44;94.33;101754.84;4974996;28;20146;-91
2022/04/14 08:12:44;;;;;;;40.45;37.92;;;;;;;16.68;88.07;101752.38;4975562;28;20059;-91
2022/04/14 08:15:13;;;;;;;41.08;38.67;;;;;;;16.61;79.24;101760.50;4975624;28;20563;-91
2022/04/14 08:17:42;;;;;;;40.78;38.47;;;;;;;16.40;77.11;101755.50;4976211;28;20047;-91
2022/04/14 08:20:17;;;;;;;41.28;38.95;;;;;;;16.62;77.55;101750.59;4975585;28;20070;-90
2022/04/14 08:22:52;;;;;;;39.42;37.13;;;;;;;16.81;72.82;101752.25;4975163;28;20567;-91
2022/04/14 08:25:22;;;;;;;40.42;37.78;;;;;;;17.09;67.05;101753.63;4975607;28;20049;-90
2022/04/14 08:27:52;;;;;;;39.42;37.10;;;;;;;17.06;68.51;101744.13;4975391;28;20053;-90
2022/04/14 08:30:25;;;;;;;40.67;38.25;;;;;;;17.48;66.57;101756.88;4974943;28;20051;-90
2022/04/14 08:32:54;;;;;;;;;;;;;;;17.28;60.61;101747.22;4980446;28;20058;-91
2022/04/14 08:35:28;;;;;;;43.75;41.25;;;;;;;18.09;60.23;101753.13;4975056;28;20010;-90
2022/04/14 08:37:56;;;;;;;45.03;42.42;;;;;;;17.76;62.96;101742.84;4975195;28;20495;-90
2022/04/14 08:40:24;;;;;;;43.40;40.85;;;;;;;17.29;50.23;101746.16;4974755;28;20488;-90
2022/04/14 08:43:01;;;;;;;46.80;44.15;;;;;;;17.58;49.00;101743.72;4975367;28;20058;-91
2022/04/14 08:45:33;;;;;;;49.28;46.58;;;;;;;17.08;48.06;101739.38;4973615;28;20051;-91
2022/04/14 09:31:32;;;;;;;47.83;45.13;;;;;;;19.49;41.68;101716.38;4973678;28;20047;-85
2022/04/14 09:37:56;;;;;;;49.38;46.40;;;;;;;19.45;41.10;101705.28;4906267;29;20060;-85
2022/04/14 09:57:11;;;;;;;47.13;44.63;;;;;;;19.94;41.43;101690.50;5034767;23;20051;-89
2022/04/14 09:59:38;;;;;;;45.63;43.13;;;;;;;20.08;41.23;101692.63;4962561;28;20097;-90
2022/04/14 10:02:10;;;;;;;42.03;39.83;;;;;;;18.96;46.25;101683.31;4960249;28;20066;-90
2022/04/14 10:04:40;;;;;;;46.00;43.60;;;;;;;20.80;43.52;101685.56;4946298;29;20047;-91
2022/04/14 10:07:09;;;;;;;47.38;44.78;;;;;;;19.81;45.92;101678.97;4953707;29;20051;-90
2022/04/14 10:09:39;;;;;;;46.78;44.20;;;;;;;18.77;46.24;101674.56;4946961;29;20051;-90
2022/04/14 10:12:26;;;;;;;50.95;47.75;;;;;;;18.31;50.06;101676.25;4952251;28;20548;-91
2022/04/14 10:15:01;;;;;;;49.20;45.70;;;;;;;18.12;50.87;101679.25;4953003;29;20051;-90
2022/04/14 10:17:29;;;;;;;55.83;52.83;;;;;;;18.07;52.95;101672.72;4953473;29;20131;-91
2022/04/14 10:19:56;;;;;;;75.55;71.55;;;;;;;19.56;41.29;101675.81;4951608;29;20115;-91
2022/04/14 10:22:24;;;;;;;76.13;72.22;;;;;;;19.59;44.62;101669.94;4954210;28;20508;-90
2022/04/14 10:24:52;;;;;;;55.22;52.33;;;;;;;20.06;44.05;101680.44;4955840;29;20043;-90
2022/04/14 10:27:22;;;;;;;59.53;56.53;;;;;;;19.89;37.54;101669.66;4955484;28;20504;-90
2022/04/14 10:29:50;;;;;;;52.25;49.42;;;;;;;20.70;41.40;101671.97;4953447;29;20043;-91
2022/04/14 10:32:17;;;;;;;56.20;53.30;;;;;;;21.22;36.54;101672.28;4953497;28;20056;-91
2022/04/14 10:34:45;;;;;;;54.50;51.60;;;;;;;18.92;45.05;101665.19;4953179;29;20074;-91
2022/04/14 10:37:18;;;;;;;64.93;61.55;;;;;;;20.91;38.69;101663.03;4953209;29;20055;-91
2022/04/14 10:39:48;;;;;;;62.05;58.75;;;;;;;20.17;39.21;101671.44;4951658;28;20063;-92
2022/04/14 10:42:18;;;;;;;65.28;61.95;;;;;;;17.72;47.72;101680.69;4949234;29;20142;-90
2022/04/14 10:44:48;;;;;;;76.93;73.13;;;;;;;20.00;42.29;101671.47;4953507;29;20066;-90
2022/04/14 10:47:49;;;;;;;50.67;47.90;;;;;;;18.56;38.17;101677.03;4953031;29;20448;-91
2022/04/14 10:50:21;;;;;;;70.30;66.90;;;;;;;18.27;47.78;101671.56;4949335;29;20043;-91
2022/04/14 10:53:01;;;;;;;70.78;67.40;;;;;;;16.55;51.69;101677.41;4953466;29;20126;-91
2022/04/14 10:55:41;;;;;;;62.80;59.67;;;;;;;18.78;43.75;101675.38;4949934;28;20043;-91
2022/04/14 10:58:46;;;;;;;55.95;52.85;;;;;;;18.90;38.03;101678.06;4932622;29;20059;-92
2022/04/14 11:02:02;;;;;;;56.58;53.58;;;;;;;20.39;42.90;101668.78;4918726;29;20056;-91
2022/04/14 11:04:52;;;;;;;52.45;49.25;;;;;;;17.41;48.21;101681.75;4925855;29;20134;-90
2022/04/14 11:07:21;;;;;;;49.92;47.03;;;;;;;18.30;41.99;101671.09;4933898;29;20052;-91
2022/04/14 11:09:58;;;;;;;53.85;50.80;;;;;;;18.53;40.81;101664.88;4932656;29;20052;-90
2022/04/14 11:12:29;;;;;;;41.25;38.95;;;;;;;18.57;44.34;101668.72;4933963;29;20425;-92
2022/04/14 11:14:58;;;;;;;39.90;37.50;;;;;;;18.28;41.41;101667.81;4934435;29;20062;-90
2022/04/14 11:17:58;;;;;;;43.22;40.80;;;;;;;19.26;39.36;101662.59;4945193;29;20501;-91
2022/04/14 11:20:59;;;;;;;43.08;40.42;;;;;;;17.05;49.77;101669.25;4931205;29;20058;-89
2022/04/14 11:23:28;;;;;;;39.72;37.60;;;;;;;17.33;50.19;101664.09;4929732;29;20464;-90
2022/04/14 11:26:20;;;;;;;41.83;39.38;;;;;;;18.71;49.24;101664.72;4929883;29;20055;-90
2022/04/14 11:29:01;;;;;;;47.30;44.57;;;;;;;17.48;50.35;101666.38;4930606;29;20106;-90
2022/04/14 11:31:32;;;;;;;41.50;39.10;;;;;;;16.64;52.83;101659.97;4929904;29;20048;-89
2022/04/14 11:34:04;;;;;;;46.30;43.80;;;;;;;19.28;45.76;101652.41;4930088;29;20050;-89
2022/04/14 11:36:46;;;;;;;46.35;43.65;;;;;;;21.76;43.17;101654.47;4931595;29;20079;-90
2022/04/14 11:39:26;;;;;;;42.75;40.08;;;;;;;21.68;44.67;101658.44;4931835;29;20106;-90
2022/04/14 11:41:57;;;;;;;40.92;38.67;;;;;;;22.18;43.10;101657.22;4945232;29;20052;-89
2022/04/14 11:44:34;;;;;;;41.78;39.20;;;;;;;21.03;43.08;101654.81;4936543;29;20055;-90
2022/04/14 11:47:03;;;;;;;39.15;36.85;;;;;;;21.26;41.26;101650.97;4931000;29;20058;-90
2022/04/14 11:49:34;;;;;;;39.22;37.03;;;;;;;20.68;41.83;101639.81;4937464;29;20133;-90
2022/04/14 11:52:05;;;;;;;41.40;39.10;;;;;;;20.91;42.29;101652.25;4926292;29;20134;-90
2022/04/14 11:54:44;;;;;;;38.60;36.58;;;;;;;22.85;42.14;101636.69;4937147;29;20044;-89
2022/04/14 11:57:29;;;;;;;43.22;40.97;;;;;;;21.68;38.97;101637.63;4947870;28;20062;-90
2022/04/14 12:00:12;;;;;;;52.78;50.00;;;;;;;22.14;40.18;101643.34;4956727;29;20472;-90
2022/04/14 12:02:42;;;;;;;45.65;43.17;;;;;;;21.95;37.30;101647.56;4948438;29;20047;-90
2022/04/14 12:05:19;;;;;;;41.80;39.45;;;;;;;20.99;37.48;101638.25;4957754;28;20222;-90
2022/04/14 12:07:48;;;;;;;46.67;43.33;;;;;;;20.78;40.29;101637.22;4956166;28;20043;-90
2022/04/14 12:10:15;;;;;;;37.95;35.75;;;;;;;19.63;37.19;101638.75;4955676;28;20055;-90
2022/04/14 12:12:49;;;;;;;45.80;43.22;;;;;;;22.68;37.73;101633.38;4955947;29;20051;-90
2022/04/14 12:15:16;;;;;;;42.95;40.45;;;;;;;23.21;37.83;101631.41;4956624;29;20051;-89
2022/04/14 12:17:45;;;;;;;38.30;35.80;;;;;;;22.37;36.38;101635.94;4956616;29;20059;-91
2022/04/14 12:20:14;;;;;;;41.33;39.03;;;;;;;21.45;36.77;101637.94;4955980;29;20066;-89
2022/04/14 12:22:43;;;;;;;42.65;40.42;;;;;;;20.59;42.57;101633.22;4955951;28;20050;-89
2022/04/14 12:25:16;;;;;;;38.92;36.88;;;;;;;21.47;43.29;101631.22;4956637;29;20051;-90
2022/04/14 12:27:48;;;;;;;45.72;42.78;;;;;;;21.37;36.87;101624.91;4955964;29;20047;-89